TFM - Tactical Decision Aid (Experimental) INFO Settings

ID: Runway Winds: CIG/VIS Threshold: METAR Board: Map:

kiad - Washington-Dulles Intl

Updated at: 2343 UTC 18 Dec 2014
Latest TAF at: 2337 UTC 18 Dec 2014

TAF Board

Time2252Z19/00Z19/01Z19/02Z19/03Z19/04Z19/05Z19/06Z19/07Z19/08Z19/09Z19/10Z19/11Z19/12Z
TypeOBSPRVLPRVLPRVLPRVLPRVLPRVLPRVLPRVLPRVLPRVLPRVLPRVLPRVL
VIS10>6>6>6>6>6>6>6>6>6>6>6>6>6
CIG140140140140140140140140140140140140140140
CoverBKNBKNBKNBKNBKNBKNBKNBKNBKNBKNBKNBKNBKNBKN
FltCat--VFRVFRVFRVFRVFRVFRVFRVFRVFRVFRVFRVFRVFR
WX----------------------------
WDir290320320320320320320320320320320320320320
WSpd96666666666666
WGst----------------------------
TAF
KIAD 182337Z 1900/2006 32006KT P6SM BKN140
  FM191500 30010G18KT P6SM SCT035
  FM200000 32005KT P6SM SCT250


METAR
KIAD 182252Z 29009KT 10SM BKN140 BKN250 01/M06 A3011 RMK AO2 SLP199 T00111056

TAF/METAR Board Legend

Potential Impact
  None Marginal Slight Moderate High
Visibility (sm) > ≤X≤ <
Ceiling (100 ft) > ≤X≤ <
Wind Speed (kt) <10 10≤X<20 20≤X<30 ≥30
Wind Gust (kt) <15 15≤X<25 25≤X<35 ≥35
Weather No Wx Reported VCTS -TS,-FZRA TS,FZRA +TS,+FZRA




Notice: Undefined index: kiad in /caws/site/new_awc/application/modules/trafficflowmgmt/controllers/TdaController.php on line 188

Notice: Undefined index: kiad in /caws/site/new_awc/application/modules/trafficflowmgmt/controllers/TdaController.php on line 189